Navigator Spirit — C6WL4 — position and weather

sailwx.info

Track history (hours):
 
Tides and Currents Weather Stations Pressure Air Temp Water Temp Dewpoint Dewpoint Depression Visibility Wind Speed Wind Dir Waves Ship Positions

Navigator Spirit

Last reported at 2016-Jun-18 10:19 UTC. Time now 2016-Jun-30 21:28 UTC.
Position N 26°06' W 078°40'.
Warning: this ship's position is 12 days out of date.

Length 241 m; draft 11 m.

Type: Tanker. MMSI: 309198000.

Date/timePositionNaut miles runAvg speedWind from/ knotsBaromVisibWave heightAir tempDewpointWater temp
2016-Jun-18 10:19N 26°06' W 078°40'1 1.6
2016-Jun-18 09:24N 26°05' W 078°40'17 2.0
2016-Jun-18 00:30N 26°19' W 078°50'1 1.5
2016-Jun-17 23:33N 26°20' W 078°52'2 1.9
2016-Jun-17 22:30N 26°22' W 078°53'  
2016-Jun-15 12:33N 26°15' W 079°19'9 9.1
2016-Jun-15 11:33N 26°08' W 079°25'1010.2
2016-Jun-15 10:33N 25°58' W 079°27'1010.2
2016-Jun-15 09:33N 25°48' W 079°29'  
2016-Jun-08 14:03N 29°20' W 093°09'0 0.0
2016-Jun-08 13:33N 29°20' W 093°09'0 0.0
2016-Jun-08 12:33N 29°20' W 093°09'0 0.1
2016-Jun-08 10:27N 29°20' W 093°09'  
Track history (hours):
 
Tides and Currents Weather Stations Pressure Air Temp Water Temp Dewpoint Dewpoint Depression Visibility Wind Speed Wind Dir Waves Ship Positions

Navigator Spirit

Last reported at 2016-Jun-18 10:19 UTC. Time now 2016-Jun-30 21:28 UTC.
Position N 26°06' W 078°40'.
Warning: this ship's position is 12 days out of date.

Length 241 m; draft 11 m.

Type: Tanker. MMSI: 309198000.

Date/timePositionNaut miles runAvg speedWind from/ knotsBaromVisibWave heightAir tempDewpointWater temp
2016-Jun-18 10:19N 26°06' W 078°40'1 1.6
2016-Jun-18 09:24N 26°05' W 078°40'17 2.0
2016-Jun-18 00:30N 26°19' W 078°50'1 1.5
2016-Jun-17 23:33N 26°20' W 078°52'2 1.9
2016-Jun-17 22:30N 26°22' W 078°53'  
2016-Jun-15 12:33N 26°15' W 079°19'9 9.1
2016-Jun-15 11:33N 26°08' W 079°25'1010.2
2016-Jun-15 10:33N 25°58' W 079°27'1010.2
2016-Jun-15 09:33N 25°48' W 079°29'  
2016-Jun-08 14:03N 29°20' W 093°09'0 0.0
2016-Jun-08 13:33N 29°20' W 093°09'0 0.0
2016-Jun-08 12:33N 29°20' W 093°09'0 0.1
2016-Jun-08 10:27N 29°20' W 093°09'  

Dump ship's entire track history